createdAt,value
2023-04-28T00:01:14.712Z,99029.94
2023-04-28T00:03:41.648Z,99035.19
2023-04-28T00:06:08.662Z,99020.56
2023-04-28T00:08:35.420Z,99032.81
2023-04-28T00:11:02.457Z,99016.94
2023-04-28T00:13:29.468Z,99016.38
2023-04-28T00:15:56.518Z,99017.50
2023-04-28T00:18:23.475Z,99014.03
2023-04-28T00:20:50.405Z,99006.91
2023-04-28T00:23:17.294Z,99010.63
2023-04-28T00:25:44.228Z,99007.69
2023-04-28T00:28:11.693Z,99007.69
2023-04-28T00:30:41.146Z,99010.09
2023-04-28T00:33:08.210Z,99008.13
2023-04-28T00:35:35.340Z,99002.13
2023-04-28T00:38:02.533Z,99002.88
2023-04-28T00:40:37.126Z,99007.34
2023-04-28T00:43:04.945Z,99002.88
2023-04-28T00:45:32.592Z,99006.72
2023-04-28T00:47:59.939Z,98995.59
2023-04-28T00:50:26.999Z,98993.25
2023-04-28T00:52:53.789Z,98995.38
2023-04-28T00:55:22.029Z,98992.63
2023-04-28T00:57:49.093Z,98988.84
2023-04-28T01:00:16.769Z,98980.09
2023-04-28T01:02:43.837Z,98985.09
2023-04-28T01:05:11.615Z,98978.03
2023-04-28T01:07:38.529Z,98971.13
2023-04-28T01:10:05.886Z,98967.84
2023-04-28T01:12:32.735Z,98970.59
2023-04-28T01:15:00.156Z,98966.13
2023-04-28T01:17:27.049Z,98968.66
2023-04-28T01:19:53.948Z,98964.66
2023-04-28T01:22:20.738Z,98960.16
2023-04-28T01:24:47.532Z,98953.81
2023-04-28T01:27:14.418Z,98946.13
2023-04-28T01:29:41.181Z,98950.44
2023-04-28T01:32:10.974Z,98950.72
2023-04-28T01:34:37.670Z,98931.88
2023-04-28T01:37:04.331Z,98937.50
2023-04-28T01:39:31.213Z,98927.53
2023-04-28T01:41:57.986Z,98944.44
2023-04-28T01:44:24.865Z,98937.78
2023-04-28T01:46:51.542Z,98931.19
2023-04-28T01:49:18.231Z,98930.25
2023-04-28T01:51:45.025Z,98921.41
2023-04-28T01:54:12.228Z,98930.13
2023-04-28T01:56:39.578Z,98910.41
2023-04-28T01:59:06.263Z,98913.56
2023-04-28T02:01:33.215Z,98905.00
2023-04-28T02:04:00.125Z,98911.47
2023-04-28T02:06:28.532Z,98917.69
2023-04-28T02:08:55.370Z,98923.75
2023-04-28T02:11:22.213Z,98917.69
2023-04-28T02:13:49.031Z,98903.19
2023-04-28T02:16:16.244Z,98898.53
2023-04-28T02:18:43.428Z,98904.16
2023-04-28T02:21:12.039Z,98913.53
2023-04-28T02:23:42.273Z,98906.09
2023-04-28T02:26:08.985Z,98920.72
2023-04-28T02:28:35.789Z,98899.47
2023-04-28T02:31:11.559Z,98904.84
2023-04-28T02:33:38.602Z,98899.69
2023-04-28T02:36:06.519Z,98893.13
2023-04-28T02:38:33.645Z,98899.25
2023-04-28T02:41:07.745Z,98888.91
2023-04-28T02:43:34.873Z,98892.34
2023-04-28T02:46:02.810Z,98887.53
2023-04-28T02:48:29.703Z,98893.16
2023-04-28T02:50:56.548Z,98877.16
2023-04-28T02:53:23.247Z,98886.69
2023-04-28T02:55:50.037Z,98881.50
2023-04-28T02:58:18.487Z,98886.97
2023-04-28T03:00:45.781Z,98872.53
2023-04-28T03:03:12.984Z,98872.66
2023-04-28T03:05:39.980Z,98871.81
2023-04-28T03:08:06.690Z,98865.75
2023-04-28T03:10:33.465Z,98858.72
2023-04-28T03:13:00.239Z,98868.31
2023-04-28T03:15:27.052Z,98868.63
2023-04-28T03:17:53.853Z,98875.47
2023-04-28T03:20:20.700Z,98862.13
2023-04-28T03:22:47.396Z,98859.25
2023-04-28T03:25:14.465Z,98856.50
2023-04-28T03:27:41.124Z,98849.03
2023-04-28T03:30:08.487Z,98843.63
2023-04-28T03:32:35.346Z,98853.91
2023-04-28T03:35:02.058Z,98848.19
2023-04-28T03:37:28.922Z,98842.78
2023-04-28T03:39:55.669Z,98837.28
2023-04-28T03:42:22.429Z,98839.47
2023-04-28T03:44:49.116Z,98836.66
2023-04-28T03:47:15.829Z,98834.59
2023-04-28T03:49:42.500Z,98831.25
2023-04-28T03:52:09.272Z,98831.78
2023-04-28T03:54:36.100Z,98834.47
2023-04-28T03:57:02.856Z,98827.09
2023-04-28T03:59:29.502Z,98839.56
2023-04-28T04:01:56.433Z,98830.38
2023-04-28T04:04:23.699Z,98824.97
2023-04-28T04:06:51.172Z,98822.69
2023-04-28T04:09:17.906Z,98829.13
2023-04-28T04:11:44.912Z,98822.41
2023-04-28T04:14:11.702Z,98824.81
2023-04-28T04:16:38.694Z,98815.50
2023-04-28T04:19:05.454Z,98812.81
2023-04-28T04:21:32.212Z,98810.53
2023-04-28T04:23:59.230Z,98802.25
2023-04-28T04:26:26.057Z,98811.56
2023-04-28T04:28:52.804Z,98814.59
2023-04-28T04:31:22.967Z,98803.53
2023-04-28T04:33:50.464Z,98806.59
2023-04-28T04:36:17.327Z,98819.22
2023-04-28T04:38:44.101Z,98818.97
2023-04-28T04:41:10.842Z,98802.66
2023-04-28T04:43:37.925Z,98808.78
2023-04-28T04:46:05.081Z,98808.25
2023-04-28T04:48:31.883Z,98809.00
2023-04-28T04:50:58.673Z,98815.28
2023-04-28T04:53:25.498Z,98810.94
2023-04-28T04:55:52.210Z,98815.00
2023-04-28T04:58:19.039Z,98817.69
2023-04-28T05:00:45.817Z,98816.69
2023-04-28T05:03:12.823Z,98807.25
2023-04-28T05:05:40.463Z,98811.34
2023-04-28T05:08:07.557Z,98807.13
2023-04-28T05:10:34.457Z,98807.84
2023-04-28T05:13:01.305Z,98808.53
2023-04-28T05:15:28.338Z,98806.72
2023-04-28T05:17:55.269Z,98795.47
2023-04-28T05:20:22.144Z,98801.00
2023-04-28T05:22:49.070Z,98792.72
2023-04-28T05:25:16.165Z,98793.84
2023-04-28T05:27:42.945Z,98794.28
2023-04-28T05:30:10.906Z,98806.28
2023-04-28T05:32:38.480Z,98799.19
2023-04-28T05:35:06.673Z,98792.47
2023-04-28T05:37:33.561Z,98798.22
2023-04-28T05:40:00.561Z,98792.38
2023-04-28T05:42:27.405Z,98783.84
2023-04-28T05:44:54.194Z,98793.63
2023-04-28T05:47:21.324Z,98786.94
2023-04-28T05:49:48.221Z,98782.16
2023-04-28T05:52:14.920Z,98783.84
2023-04-28T05:54:41.679Z,98790.75
2023-04-28T05:57:08.729Z,98790.50
2023-04-28T05:59:36.087Z,98784.25
2023-04-28T06:02:02.792Z,98785.25
2023-04-28T06:04:29.762Z,98772.00
2023-04-28T06:06:57.501Z,98780.69
2023-04-28T06:09:24.279Z,98766.34
2023-04-28T06:11:51.594Z,98777.78
2023-04-28T06:14:19.033Z,98771.56
2023-04-28T06:16:46.554Z,98775.84
2023-04-28T06:19:15.111Z,98784.41
2023-04-28T06:21:41.872Z,98765.88
2023-04-28T06:24:08.607Z,98782.44
2023-04-28T06:26:35.407Z,98783.44
2023-04-28T06:29:02.175Z,98781.94
2023-04-28T06:31:29.195Z,98772.97
2023-04-28T06:33:56.524Z,98777.72
2023-04-28T06:36:24.008Z,98779.28
2023-04-28T06:38:51.627Z,98778.88
2023-04-28T06:41:18.434Z,98783.13
2023-04-28T06:43:45.162Z,98787.50
2023-04-28T06:46:12.144Z,98779.25
2023-04-28T06:48:39.001Z,98771.75
2023-04-28T06:51:06.036Z,98770.09
2023-04-28T06:53:32.774Z,98775.59
2023-04-28T06:56:00.533Z,98770.75
2023-04-28T06:58:27.268Z,98765.25
2023-04-28T07:00:53.991Z,98754.81
2023-04-28T07:03:21.084Z,98763.19
2023-04-28T07:05:47.869Z,98764.16
2023-04-28T07:08:14.677Z,98764.19
2023-04-28T07:10:41.540Z,98767.75
2023-04-28T07:13:08.769Z,98767.16
2023-04-28T07:15:35.444Z,98773.25
2023-04-28T07:18:02.528Z,98779.25
2023-04-28T07:20:29.293Z,98774.34
2023-04-28T07:22:55.978Z,98773.00
2023-04-28T07:25:23.979Z,98769.22
2023-04-28T07:27:50.693Z,98774.09
2023-04-28T07:30:27.276Z,98768.00
2023-04-28T07:32:55.609Z,98771.25
2023-04-28T07:35:23.178Z,98763.00
2023-04-28T07:37:50.136Z,98752.22
2023-04-28T07:40:17.203Z,98751.28
2023-04-28T07:42:44.253Z,98762.66
2023-04-28T07:45:11.203Z,98744.66
2023-04-28T07:47:38.357Z,98749.28
2023-04-28T07:50:06.869Z,98750.38
2023-04-28T07:52:34.146Z,98755.28
2023-04-28T07:55:01.360Z,98766.97
2023-04-28T07:57:30.080Z,98766.38
2023-04-28T07:59:56.829Z,98773.59
2023-04-28T08:02:23.720Z,98773.53
2023-04-28T08:04:50.945Z,98766.03
2023-04-28T08:07:18.057Z,98749.28
2023-04-28T08:09:48.077Z,98737.03
2023-04-28T08:12:15.366Z,98739.44
2023-04-28T08:14:42.159Z,98732.00
2023-04-28T08:17:09.668Z,98732.13
2023-04-28T08:19:36.706Z,98729.78
2023-04-28T08:22:06.372Z,98724.16
2023-04-28T08:24:36.808Z,98717.53
2023-04-28T08:27:04.255Z,98722.63
2023-04-28T08:29:32.071Z,98712.06
2023-04-28T08:31:58.972Z,98717.41
2023-04-28T08:34:25.977Z,98713.28
2023-04-28T08:36:53.373Z,98710.25
2023-04-28T08:39:21.124Z,98717.81
2023-04-28T08:41:47.969Z,98703.22
2023-04-28T08:44:14.945Z,98704.16
2023-04-28T08:46:44.285Z,98715.06
2023-04-28T08:49:19.052Z,98709.78
2023-04-28T08:51:49.596Z,98698.22
2023-04-28T08:54:26.169Z,98703.44
2023-04-28T08:56:54.350Z,98709.03
2023-04-28T08:59:21.314Z,98715.91
2023-04-28T09:01:49.392Z,98720.72
2023-04-28T09:04:18.601Z,98713.03
2023-04-28T09:06:46.660Z,98717.31
2023-04-28T09:09:23.784Z,98716.75
2023-04-28T09:12:01.625Z,98710.72
2023-04-28T09:14:33.449Z,98710.41
2023-04-28T09:17:01.808Z,98708.09
2023-04-28T09:19:38.881Z,98701.56
2023-04-28T09:22:21.949Z,98697.91
2023-04-28T09:24:53.460Z,98692.09
2023-04-28T09:27:28.702Z,98700.66
2023-04-28T09:29:55.762Z,98697.28
2023-04-28T09:32:23.923Z,98693.34
2023-04-28T09:34:54.052Z,98696.50
2023-04-28T09:37:26.488Z,98692.88
2023-04-28T09:39:54.742Z,98688.81
2023-04-28T09:42:57.377Z,98689.72
2023-04-28T09:45:24.929Z,98696.84
2023-04-28T09:47:51.710Z,98690.63
2023-04-28T09:50:18.578Z,98694.47
2023-04-28T09:52:49.508Z,98696.63
2023-04-28T09:55:16.601Z,98691.75
2023-04-28T09:57:44.968Z,98690.22
2023-04-28T10:00:12.437Z,98691.91
2023-04-28T10:05:11.442Z,98690.78
2023-04-28T10:07:39.661Z,98677.66
2023-04-28T10:10:08.071Z,98691.66
2023-04-28T10:12:35.357Z,98696.63
2023-04-28T10:15:02.358Z,98685.28
2023-04-28T10:17:29.904Z,98684.78
2023-04-28T10:19:57.595Z,98690.34
2023-04-28T10:22:53.870Z,98685.84
2023-04-28T10:25:35.411Z,98679.44
2023-04-28T10:28:06.856Z,98672.22
2023-04-28T10:30:34.653Z,98661.88
2023-04-28T10:33:25.069Z,98660.88
2023-04-28T10:35:52.057Z,98660.88
2023-04-28T10:38:22.032Z,98645.19
2023-04-28T10:40:50.291Z,98645.22
2023-04-28T10:43:46.340Z,98640.50
2023-04-28T10:46:13.287Z,98636.44
2023-04-28T10:48:53.233Z,98620.34
2023-04-28T10:51:24.741Z,98622.44
2023-04-28T10:54:14.578Z,98629.25
2023-04-28T10:56:42.825Z,98626.28
2023-04-28T10:59:25.795Z,98623.28
2023-04-28T11:01:52.764Z,98627.31
2023-04-28T11:04:19.948Z,98623.34
2023-04-28T11:06:48.119Z,98633.59
2023-04-28T11:09:35.229Z,98632.44
2023-04-28T11:12:11.337Z,98631.63
2023-04-28T11:14:41.021Z,98625.69
2023-04-28T11:17:09.977Z,98631.78
2023-04-28T11:19:39.388Z,98627.03
2023-04-28T11:22:16.081Z,98625.25
2023-04-28T11:24:57.378Z,98628.56
2023-04-28T11:27:25.683Z,98620.66
2023-04-28T11:29:52.828Z,98620.69
2023-04-28T11:32:27.595Z,98620.38
2023-04-28T11:34:54.944Z,98630.75
2023-04-28T11:37:21.924Z,98625.28
2023-04-28T11:39:49.046Z,98624.81
2023-04-28T11:42:17.406Z,98624.34
2023-04-28T11:44:52.314Z,98620.56
2023-04-28T11:47:33.001Z,98614.16
2023-04-28T11:50:00.270Z,98606.28
2023-04-28T11:52:27.915Z,98611.88
2023-04-28T11:54:56.372Z,98603.00
2023-04-28T11:57:23.729Z,98602.84
2023-04-28T11:59:51.275Z,98609.41
2023-04-28T12:02:26.588Z,98603.16
2023-04-28T12:04:53.597Z,98595.13
2023-04-28T12:07:20.481Z,98590.84
2023-04-28T12:10:11.430Z,98592.47
2023-04-28T12:15:08.724Z,98584.22
2023-04-28T12:17:38.331Z,98587.22
2023-04-28T12:20:10.161Z,98587.22
2023-04-28T12:22:48.182Z,98580.94
2023-04-28T12:25:17.842Z,98575.66
2023-04-28T12:28:08.728Z,98579.63
2023-04-28T12:30:40.494Z,98578.59
2023-04-28T12:33:22.488Z,98571.19
2023-04-28T12:35:50.198Z,98574.59
2023-04-28T12:38:17.375Z,98567.63
2023-04-28T12:40:44.061Z,98556.75
2023-04-28T12:43:12.802Z,98561.00
2023-04-28T12:45:39.584Z,98565.94
2023-04-28T12:48:06.908Z,98559.81
2023-04-28T12:50:34.001Z,98559.63
2023-04-28T12:53:00.773Z,98567.22
2023-04-28T12:55:27.566Z,98567.22
2023-04-28T12:57:55.123Z,98572.75
2023-04-28T13:00:23.729Z,98569.66
2023-04-28T13:02:51.419Z,98569.66
2023-04-28T13:05:19.798Z,98568.50
2023-04-28T13:07:47.011Z,98573.91
2023-04-28T13:10:14.271Z,98572.13
2023-04-28T13:12:41.742Z,98568.63
2023-04-28T13:15:09.375Z,98560.59
2023-04-28T13:17:36.277Z,98556.66
2023-04-28T13:20:04.165Z,98562.19
2023-04-28T13:22:31.122Z,98551.00
2023-04-28T13:24:57.970Z,98547.56
2023-04-28T13:27:24.792Z,98554.88
2023-04-28T13:29:51.851Z,98546.03
2023-04-28T13:32:18.571Z,98545.47
2023-04-28T13:34:45.493Z,98542.28
2023-04-28T13:37:12.408Z,98552.00
2023-04-28T13:39:39.258Z,98550.53
2023-04-28T13:42:07.155Z,98548.41
2023-04-28T13:44:34.164Z,98552.78
2023-04-28T13:47:01.130Z,98550.31
2023-04-28T13:49:28.392Z,98549.50
2023-04-28T13:51:55.104Z,98545.84
2023-04-28T13:54:22.138Z,98548.31
2023-04-28T13:56:49.047Z,98539.88
2023-04-28T13:59:15.898Z,98536.94
2023-04-28T14:01:42.879Z,98543.97
2023-04-28T14:04:09.883Z,98528.19
2023-04-28T14:06:37.508Z,98532.94
2023-04-28T14:09:04.658Z,98531.31
2023-04-28T14:11:31.381Z,98527.66
2023-04-28T14:13:58.175Z,98526.84
2023-04-28T14:16:24.905Z,98527.13
2023-04-28T14:18:52.074Z,98525.66
2023-04-28T14:21:18.853Z,98532.38
2023-04-28T14:23:45.632Z,98527.06
2023-04-28T14:26:12.402Z,98522.25
2023-04-28T14:28:39.167Z,98517.31
2023-04-28T14:31:09.317Z,98509.69
2023-04-28T14:33:36.237Z,98507.69
2023-04-28T14:36:03.141Z,98511.44
2023-04-28T14:38:31.019Z,98516.53
2023-04-28T14:40:58.277Z,98507.06
2023-04-28T14:43:25.251Z,98507.19
2023-04-28T14:45:52.294Z,98501.28
2023-04-28T14:48:19.455Z,98499.34
2023-04-28T14:50:46.486Z,98495.16
2023-04-28T14:53:13.354Z,98490.69
2023-04-28T14:55:40.205Z,98489.34
2023-04-28T14:58:07.051Z,98500.38
2023-04-28T15:00:34.066Z,98493.53
2023-04-28T15:03:00.970Z,98492.63
2023-04-28T15:05:27.897Z,98488.78
2023-04-28T15:07:54.703Z,98498.06
2023-04-28T15:10:24.653Z,98502.56
2023-04-28T15:12:51.484Z,98492.78
2023-04-28T15:15:18.185Z,98496.91
2023-04-28T15:17:45.686Z,98499.25
2023-04-28T15:20:12.578Z,98495.81
2023-04-28T15:22:39.285Z,98500.84
2023-04-28T15:25:07.424Z,98494.88
2023-04-28T15:27:34.371Z,98504.81
2023-04-28T15:30:02.275Z,98505.00
2023-04-28T15:32:31.927Z,98496.44
2023-04-28T15:34:58.896Z,98506.91
2023-04-28T15:37:38.028Z,98510.41
2023-04-28T15:40:09.618Z,98505.75
2023-04-28T15:42:37.597Z,98506.28
2023-04-28T15:45:05.689Z,98509.47
2023-04-28T15:47:33.346Z,98515.41
2023-04-28T15:50:00.334Z,98501.56
2023-04-28T15:52:27.767Z,98503.03
2023-04-28T15:54:57.559Z,98502.72
2023-04-28T15:57:24.557Z,98495.16
2023-04-28T15:59:52.034Z,98506.38
2023-04-28T16:02:19.344Z,98506.28
2023-04-28T16:04:47.140Z,98498.06
2023-04-28T16:07:14.287Z,98502.41
2023-04-28T16:09:41.117Z,98502.41
2023-04-28T16:12:08.682Z,98508.97
2023-04-28T16:14:36.937Z,98498.84
2023-04-28T16:17:03.789Z,98493.69
2023-04-28T16:19:30.625Z,98490.69
2023-04-28T16:21:57.577Z,98495.25
2023-04-28T16:24:25.014Z,98491.91
2023-04-28T16:26:52.138Z,98498.81
2023-04-28T16:29:18.881Z,98495.66
2023-04-28T16:31:46.362Z,98494.00
2023-04-28T16:34:13.299Z,98490.00
2023-04-28T16:36:40.503Z,98487.44
2023-04-28T16:39:07.978Z,98476.16
2023-04-28T16:41:34.771Z,98474.06
2023-04-28T16:44:01.652Z,98472.03
2023-04-28T16:46:28.625Z,98462.47
2023-04-28T16:48:57.286Z,98472.69
2023-04-28T16:51:23.991Z,98475.34
2023-04-28T16:53:50.761Z,98469.84
2023-04-28T16:56:17.566Z,98465.00
2023-04-28T16:58:44.317Z,98457.34
2023-04-28T17:01:11.638Z,98457.09
2023-04-28T17:03:42.227Z,98446.88
2023-04-28T17:06:09.396Z,98458.72
2023-04-28T17:08:36.327Z,98445.31
2023-04-28T17:11:06.034Z,98457.09
2023-04-28T17:13:33.207Z,98463.56
2023-04-28T17:16:00.643Z,98461.81
2023-04-28T17:18:27.870Z,98457.81
2023-04-28T17:20:55.088Z,98461.75
2023-04-28T17:23:22.332Z,98479.06
2023-04-28T17:25:49.151Z,98472.78
2023-04-28T17:28:16.114Z,98463.72
2023-04-28T17:30:47.196Z,98453.59
2023-04-28T17:33:14.687Z,98448.31
2023-04-28T17:35:41.386Z,98460.41
2023-04-28T17:38:08.105Z,98449.50
2023-04-28T17:40:35.076Z,98452.75
2023-04-28T17:43:03.167Z,98452.41
2023-04-28T17:45:30.434Z,98458.41
2023-04-28T17:48:00.523Z,98447.44
2023-04-28T17:50:27.427Z,98455.63
2023-04-28T17:52:54.523Z,98459.34
2023-04-28T17:55:21.571Z,98467.94
2023-04-28T17:57:48.336Z,98469.44
2023-04-28T18:00:15.270Z,98464.09
2023-04-28T18:02:42.356Z,98459.81
2023-04-28T18:05:09.677Z,98456.88
2023-04-28T18:07:36.631Z,98464.66
2023-04-28T18:10:03.750Z,98462.72
2023-04-28T18:12:30.625Z,98469.97
2023-04-28T18:14:58.252Z,98475.56
2023-04-28T18:17:26.427Z,98473.16
2023-04-28T18:19:57.022Z,98485.81
2023-04-28T18:22:23.936Z,98477.72
2023-04-28T18:24:51.164Z,98487.50
2023-04-28T18:27:18.195Z,98481.22
2023-04-28T18:29:45.247Z,98475.63
2023-04-28T18:32:14.462Z,98482.69
2023-04-28T18:34:41.837Z,98478.44
2023-04-28T18:37:09.908Z,98471.84
2023-04-28T18:39:36.956Z,98473.88
2023-04-28T18:42:04.846Z,98469.91
2023-04-28T18:44:31.835Z,98471.34
2023-04-28T18:46:58.854Z,98471.69
2023-04-28T18:49:26.009Z,98477.03
2023-04-28T18:51:53.055Z,98482.31
2023-04-28T18:54:20.094Z,98487.09
2023-04-28T18:56:48.264Z,98476.75
2023-04-28T18:59:15.103Z,98475.59
2023-04-28T19:01:42.163Z,98469.72
2023-04-28T19:04:09.437Z,98467.38
2023-04-28T19:06:36.606Z,98479.56
2023-04-28T19:09:03.521Z,98474.50
2023-04-28T19:11:31.068Z,98489.88
2023-04-28T19:13:58.387Z,98508.50
2023-04-28T19:16:25.497Z,98497.09
2023-04-28T19:18:52.328Z,98476.97
2023-04-28T19:21:19.058Z,98480.00
2023-04-28T19:23:45.863Z,98470.47
2023-04-28T19:26:13.664Z,98479.34
2023-04-28T19:28:40.591Z,98482.66
2023-04-28T19:31:08.836Z,98481.03
2023-04-28T19:33:35.646Z,98488.94
2023-04-28T19:36:03.419Z,98489.47
2023-04-28T19:38:30.371Z,98499.22
2023-04-28T19:41:01.324Z,98504.34
2023-04-28T19:43:28.128Z,98511.75
2023-04-28T19:45:55.074Z,98512.41
2023-04-28T19:48:21.793Z,98521.66
2023-04-28T19:50:48.538Z,98521.31
2023-04-28T19:53:15.259Z,98511.81
2023-04-28T19:55:41.943Z,98510.13
2023-04-28T19:58:10.343Z,98511.28
2023-04-28T20:00:37.151Z,98512.59
2023-04-28T20:03:04.214Z,98503.56
2023-04-28T20:05:31.656Z,98509.66
2023-04-28T20:07:58.719Z,98511.13
2023-04-28T20:10:25.487Z,98501.28
2023-04-28T20:12:54.044Z,98513.28
2023-04-28T20:15:21.084Z,98516.25
2023-04-28T20:17:47.963Z,98515.09
2023-04-28T20:20:14.721Z,98508.53
2023-04-28T20:22:41.673Z,98516.09
2023-04-28T20:25:10.653Z,98512.81
2023-04-28T20:27:37.984Z,98510.50
2023-04-28T20:30:05.664Z,98508.03
2023-04-28T20:32:32.609Z,98512.47
2023-04-28T20:34:59.586Z,98507.69
2023-04-28T20:37:26.658Z,98517.25
2023-04-28T20:39:53.608Z,98511.50
2023-04-28T20:42:20.389Z,98509.34
2023-04-28T20:44:47.151Z,98509.19
2023-04-28T20:47:14.287Z,98509.50
2023-04-28T20:49:41.582Z,98512.97
2023-04-28T20:52:08.651Z,98516.41
2023-04-28T20:54:38.247Z,98524.66
2023-04-28T20:57:05.731Z,98522.69
2023-04-28T20:59:33.040Z,98519.88
2023-04-28T21:02:00.418Z,98521.03
2023-04-28T21:04:28.513Z,98519.72
2023-04-28T21:06:55.808Z,98515.44
2023-04-28T21:09:25.590Z,98517.72
2023-04-28T21:11:52.822Z,98517.91
2023-04-28T21:14:19.675Z,98523.66
2023-04-28T21:16:46.485Z,98525.94
2023-04-28T21:19:13.334Z,98520.53
2023-04-28T21:21:40.097Z,98519.69
2023-04-28T21:24:08.456Z,98516.41
2023-04-28T21:26:36.160Z,98516.41
2023-04-28T21:29:03.246Z,98519.53
2023-04-28T21:31:31.150Z,98514.72
2023-04-28T21:33:58.022Z,98515.38
2023-04-28T21:36:24.741Z,98519.84
2023-04-28T21:38:51.905Z,98516.69
2023-04-28T21:41:18.654Z,98518.94
2023-04-28T21:43:45.424Z,98513.53
2023-04-28T21:46:13.332Z,98507.47
2023-04-28T21:48:40.134Z,98515.66
2023-04-28T21:51:07.020Z,98503.28
2023-04-28T21:53:33.860Z,98510.75
2023-04-28T21:56:00.607Z,98516.34
2023-04-28T21:58:27.444Z,98508.59
2023-04-28T22:00:55.362Z,98510.91
2023-04-28T22:03:22.298Z,98521.78
2023-04-28T22:05:49.456Z,98515.66
2023-04-28T22:08:17.342Z,98522.38
2023-04-28T22:10:45.789Z,98516.97
2023-04-28T22:13:13.063Z,98513.50
2023-04-28T22:15:39.917Z,98519.28
2023-04-28T22:18:08.379Z,98516.66
2023-04-28T22:20:35.124Z,98529.78
2023-04-28T22:23:01.844Z,98532.50
2023-04-28T22:25:28.560Z,98532.50
2023-04-28T22:27:55.359Z,98532.81
2023-04-28T22:30:24.342Z,98528.53
2023-04-28T22:32:52.480Z,98520.13
2023-04-28T22:35:19.567Z,98528.00
2023-04-28T22:37:46.401Z,98519.59
2023-04-28T22:40:13.342Z,98526.28
2023-04-28T22:42:41.907Z,98523.41
2023-04-28T22:45:10.779Z,98531.56
2023-04-28T22:47:38.877Z,98523.03
2023-04-28T22:50:06.987Z,98522.03
2023-04-28T22:52:34.451Z,98519.22
2023-04-28T22:55:01.394Z,98523.94
2023-04-28T22:57:28.759Z,98526.22
2023-04-28T22:59:55.800Z,98524.72
2023-04-28T23:02:23.329Z,98519.28
2023-04-28T23:04:50.691Z,98512.91
2023-04-28T23:07:17.556Z,98511.19
2023-04-28T23:09:44.947Z,98502.56
2023-04-28T23:12:11.710Z,98504.59
2023-04-28T23:14:38.497Z,98510.94
2023-04-28T23:17:05.375Z,98511.94
2023-04-28T23:19:32.147Z,98508.94
2023-04-28T23:21:59.155Z,98514.84
2023-04-28T23:24:27.579Z,98512.47
2023-04-28T23:26:54.368Z,98521.69
2023-04-28T23:29:21.222Z,98510.53
2023-04-28T23:31:52.708Z,98521.78
2023-04-28T23:34:19.614Z,98528.44
2023-04-28T23:36:46.474Z,98525.53
2023-04-28T23:39:13.772Z,98534.91
2023-04-28T23:41:40.464Z,98532.41
2023-04-28T23:44:07.435Z,98533.53
2023-04-28T23:46:34.179Z,98534.75
2023-04-28T23:49:00.922Z,98536.00
2023-04-28T23:51:27.696Z,98525.94
2023-04-28T23:53:54.459Z,98536.44
2023-04-28T23:56:21.463Z,98528.81
2023-04-28T23:58:48.134Z,98528.81
